sensor_id;sensor_type;location;lat;lon;timestamp;P1;durP1;ratioP1;P2;durP2;ratioP2
48014;SDS011;33780;51.034;7.120;2022-10-17T00:02:12;2.33;;;1.15;;
48014;SDS011;33780;51.034;7.120;2022-10-17T00:04:38;3.40;;;1.27;;
48014;SDS011;33780;51.034;7.120;2022-10-17T00:07:03;4.80;;;1.60;;
48014;SDS011;33780;51.034;7.120;2022-10-17T00:09:28;3.38;;;1.25;;
48014;SDS011;33780;51.034;7.120;2022-10-17T00:11:54;3.25;;;1.10;;
48014;SDS011;33780;51.034;7.120;2022-10-17T00:14:19;4.10;;;1.40;;
48014;SDS011;33780;51.034;7.120;2022-10-17T00:16:44;4.50;;;1.33;;
48014;SDS011;33780;51.034;7.120;2022-10-17T00:19:10;2.15;;;1.20;;
48014;SDS011;33780;51.034;7.120;2022-10-17T00:21:35;3.17;;;1.20;;
48014;SDS011;33780;51.034;7.120;2022-10-17T00:24:00;3.22;;;1.40;;
48014;SDS011;33780;51.034;7.120;2022-10-17T00:26:26;3.58;;;1.30;;
48014;SDS011;33780;51.034;7.120;2022-10-17T00:28:53;2.88;;;1.30;;
48014;SDS011;33780;51.034;7.120;2022-10-17T00:31:19;2.90;;;1.40;;
48014;SDS011;33780;51.034;7.120;2022-10-17T00:33:46;3.38;;;1.30;;
48014;SDS011;33780;51.034;7.120;2022-10-17T00:36:15;4.25;;;1.40;;
48014;SDS011;33780;51.034;7.120;2022-10-17T00:38:42;2.47;;;1.40;;
48014;SDS011;33780;51.034;7.120;2022-10-17T00:41:10;5.88;;;1.35;;
48014;SDS011;33780;51.034;7.120;2022-10-17T00:46:51;2.53;;;1.60;;
48014;SDS011;33780;51.034;7.120;2022-10-17T00:49:17;4.68;;;1.38;;
48014;SDS011;33780;51.034;7.120;2022-10-17T00:51:51;4.57;;;1.30;;
48014;SDS011;33780;51.034;7.120;2022-10-17T00:54:22;2.58;;;1.20;;
48014;SDS011;33780;51.034;7.120;2022-10-17T00:56:50;2.05;;;1.10;;
48014;SDS011;33780;51.034;7.120;2022-10-17T00:59:16;3.85;;;1.20;;
48014;SDS011;33780;51.034;7.120;2022-10-17T01:01:46;4.70;;;1.70;;
48014;SDS011;33780;51.034;7.120;2022-10-17T01:04:17;4.30;;;1.40;;
48014;SDS011;33780;51.034;7.120;2022-10-17T01:06:43;6.18;;;1.70;;
48014;SDS011;33780;51.034;7.120;2022-10-17T01:09:08;2.83;;;1.38;;
48014;SDS011;33780;51.034;7.120;2022-10-17T01:11:36;5.57;;;1.48;;
48014;SDS011;33780;51.034;7.120;2022-10-17T01:16:57;3.17;;;1.50;;
48014;SDS011;33780;51.034;7.120;2022-10-17T01:22:36;8.13;;;1.30;;
48014;SDS011;33780;51.034;7.120;2022-10-17T01:25:23;5.40;;;1.65;;
48014;SDS011;33780;51.034;7.120;2022-10-17T01:31:01;5.20;;;1.70;;
48014;SDS011;33780;51.034;7.120;2022-10-17T01:36:16;6.28;;;1.63;;
48014;SDS011;33780;51.034;7.120;2022-10-17T01:38:45;2.65;;;1.50;;
48014;SDS011;33780;51.034;7.120;2022-10-17T01:46:38;4.85;;;1.63;;
48014;SDS011;33780;51.034;7.120;2022-10-17T01:49:07;3.65;;;1.40;;
48014;SDS011;33780;51.034;7.120;2022-10-17T01:51:38;2.90;;;1.50;;
48014;SDS011;33780;51.034;7.120;2022-10-17T01:56:37;5.82;;;1.83;;
48014;SDS011;33780;51.034;7.120;2022-10-17T01:59:10;3.58;;;1.50;;
48014;SDS011;33780;51.034;7.120;2022-10-17T02:01:40;4.88;;;1.70;;
48014;SDS011;33780;51.034;7.120;2022-10-17T02:04:07;4.82;;;1.85;;
48014;SDS011;33780;51.034;7.120;2022-10-17T02:06:35;5.68;;;1.63;;
48014;SDS011;33780;51.034;7.120;2022-10-17T02:09:13;3.67;;;1.60;;
48014;SDS011;33780;51.034;7.120;2022-10-17T02:12:14;3.63;;;1.35;;
48014;SDS011;33780;51.034;7.120;2022-10-17T02:20:46;2.78;;;1.25;;
48014;SDS011;33780;51.034;7.120;2022-10-17T02:23:19;4.18;;;2.20;;
48014;SDS011;33780;51.034;7.120;2022-10-17T02:25:58;3.23;;;1.70;;
48014;SDS011;33780;51.034;7.120;2022-10-17T02:31:15;4.05;;;1.33;;
48014;SDS011;33780;51.034;7.120;2022-10-17T02:33:48;2.65;;;1.50;;
48014;SDS011;33780;51.034;7.120;2022-10-17T02:36:21;4.75;;;1.50;;
48014;SDS011;33780;51.034;7.120;2022-10-17T02:38:50;5.47;;;1.50;;
48014;SDS011;33780;51.034;7.120;2022-10-17T02:41:17;4.63;;;1.35;;
48014;SDS011;33780;51.034;7.120;2022-10-17T02:43:44;3.25;;;1.30;;
48014;SDS011;33780;51.034;7.120;2022-10-17T02:46:13;5.38;;;1.27;;
48014;SDS011;33780;51.034;7.120;2022-10-17T02:48:49;4.40;;;1.60;;
48014;SDS011;33780;51.034;7.120;2022-10-17T02:56:40;4.85;;;1.30;;
48014;SDS011;33780;51.034;7.120;2022-10-17T02:59:11;4.70;;;1.75;;
48014;SDS011;33780;51.034;7.120;2022-10-17T03:01:40;6.45;;;1.60;;
48014;SDS011;33780;51.034;7.120;2022-10-17T03:04:06;2.53;;;1.33;;
48014;SDS011;33780;51.034;7.120;2022-10-17T03:06:34;4.32;;;1.63;;
48014;SDS011;33780;51.034;7.120;2022-10-17T03:08:59;6.05;;;1.63;;
48014;SDS011;33780;51.034;7.120;2022-10-17T03:11:24;2.58;;;1.40;;
48014;SDS011;33780;51.034;7.120;2022-10-17T03:13:50;3.72;;;1.48;;
48014;SDS011;33780;51.034;7.120;2022-10-17T03:16:15;6.47;;;1.52;;
48014;SDS011;33780;51.034;7.120;2022-10-17T03:18:40;2.72;;;1.52;;
48014;SDS011;33780;51.034;7.120;2022-10-17T03:21:05;5.57;;;1.35;;
48014;SDS011;33780;51.034;7.120;2022-10-17T03:23:31;4.05;;;1.67;;
48014;SDS011;33780;51.034;7.120;2022-10-17T03:25:56;4.00;;;1.38;;
48014;SDS011;33780;51.034;7.120;2022-10-17T03:28:21;3.38;;;1.70;;
48014;SDS011;33780;51.034;7.120;2022-10-17T03:30:47;3.47;;;1.80;;
48014;SDS011;33780;51.034;7.120;2022-10-17T03:33:12;5.22;;;1.80;;
48014;SDS011;33780;51.034;7.120;2022-10-17T03:35:38;3.38;;;1.65;;
48014;SDS011;33780;51.034;7.120;2022-10-17T03:38:04;6.30;;;1.70;;
48014;SDS011;33780;51.034;7.120;2022-10-17T03:40:29;2.63;;;1.40;;
48014;SDS011;33780;51.034;7.120;2022-10-17T03:42:54;3.55;;;1.58;;
48014;SDS011;33780;51.034;7.120;2022-10-17T03:45:20;2.65;;;1.13;;
48014;SDS011;33780;51.034;7.120;2022-10-17T03:47:45;3.30;;;1.35;;
48014;SDS011;33780;51.034;7.120;2022-10-17T03:50:10;3.92;;;1.55;;
48014;SDS011;33780;51.034;7.120;2022-10-17T03:52:36;2.90;;;1.50;;
48014;SDS011;33780;51.034;7.120;2022-10-17T03:55:01;2.78;;;1.40;;
48014;SDS011;33780;51.034;7.120;2022-10-17T03:57:27;2.83;;;1.30;;
48014;SDS011;33780;51.034;7.120;2022-10-17T03:59:52;2.00;;;1.25;;
48014;SDS011;33780;51.034;7.120;2022-10-17T04:02:17;2.75;;;1.50;;
48014;SDS011;33780;51.034;7.120;2022-10-17T04:04:43;5.82;;;1.55;;
48014;SDS011;33780;51.034;7.120;2022-10-17T04:07:08;4.78;;;1.52;;
48014;SDS011;33780;51.034;7.120;2022-10-17T04:09:33;4.47;;;1.40;;
48014;SDS011;33780;51.034;7.120;2022-10-17T04:11:59;6.03;;;1.58;;
48014;SDS011;33780;51.034;7.120;2022-10-17T04:14:24;3.13;;;1.40;;
48014;SDS011;33780;51.034;7.120;2022-10-17T04:16:49;5.22;;;1.80;;
48014;SDS011;33780;51.034;7.120;2022-10-17T04:19:15;4.63;;;1.42;;
48014;SDS011;33780;51.034;7.120;2022-10-17T04:21:40;3.10;;;1.65;;
48014;SDS011;33780;51.034;7.120;2022-10-17T04:24:05;2.85;;;1.35;;
48014;SDS011;33780;51.034;7.120;2022-10-17T04:26:34;2.72;;;1.20;;
48014;SDS011;33780;51.034;7.120;2022-10-17T04:29:00;3.10;;;1.23;;
48014;SDS011;33780;51.034;7.120;2022-10-17T04:31:25;4.70;;;1.50;;
48014;SDS011;33780;51.034;7.120;2022-10-17T04:33:50;3.40;;;1.30;;
48014;SDS011;33780;51.034;7.120;2022-10-17T04:36:16;3.75;;;1.73;;
48014;SDS011;33780;51.034;7.120;2022-10-17T04:38:44;2.58;;;1.35;;
48014;SDS011;33780;51.034;7.120;2022-10-17T04:41:11;3.13;;;1.40;;
48014;SDS011;33780;51.034;7.120;2022-10-17T04:43:38;2.63;;;1.40;;
48014;SDS011;33780;51.034;7.120;2022-10-17T04:46:08;3.10;;;1.73;;
48014;SDS011;33780;51.034;7.120;2022-10-17T04:48:35;5.32;;;1.50;;
48014;SDS011;33780;51.034;7.120;2022-10-17T04:51:01;3.95;;;1.67;;
48014;SDS011;33780;51.034;7.120;2022-10-17T04:53:33;2.97;;;1.45;;
48014;SDS011;33780;51.034;7.120;2022-10-17T04:55:59;4.38;;;3.10;;
48014;SDS011;33780;51.034;7.120;2022-10-17T04:58:26;3.42;;;1.50;;
48014;SDS011;33780;51.034;7.120;2022-10-17T05:00:53;3.10;;;1.58;;
48014;SDS011;33780;51.034;7.120;2022-10-17T05:03:19;5.10;;;2.20;;
48014;SDS011;33780;51.034;7.120;2022-10-17T05:08:42;4.00;;;1.40;;
48014;SDS011;33780;51.034;7.120;2022-10-17T05:11:21;4.63;;;1.45;;
48014;SDS011;33780;51.034;7.120;2022-10-17T05:13:48;5.43;;;1.40;;
48014;SDS011;33780;51.034;7.120;2022-10-17T05:16:43;3.35;;;1.25;;
48014;SDS011;33780;51.034;7.120;2022-10-17T05:22:09;5.97;;;1.60;;
48014;SDS011;33780;51.034;7.120;2022-10-17T05:24:52;3.47;;;1.52;;
48014;SDS011;33780;51.034;7.120;2022-10-17T05:27:17;4.68;;;1.60;;
48014;SDS011;33780;51.034;7.120;2022-10-17T05:29:47;4.30;;;1.65;;
48014;SDS011;33780;51.034;7.120;2022-10-17T05:32:13;3.80;;;1.75;;
48014;SDS011;33780;51.034;7.120;2022-10-17T05:34:47;6.32;;;1.50;;
48014;SDS011;33780;51.034;7.120;2022-10-17T05:37:33;9.20;;;1.73;;
48014;SDS011;33780;51.034;7.120;2022-10-17T05:45:17;2.50;;;1.43;;
48014;SDS011;33780;51.034;7.120;2022-10-17T05:47:43;5.13;;;1.95;;
48014;SDS011;33780;51.034;7.120;2022-10-17T05:50:15;3.08;;;1.70;;
48014;SDS011;33780;51.034;7.120;2022-10-17T05:52:41;2.25;;;1.40;;
48014;SDS011;33780;51.034;7.120;2022-10-17T05:55:06;4.75;;;1.70;;
48014;SDS011;33780;51.034;7.120;2022-10-17T05:57:35;4.10;;;1.80;;
48014;SDS011;33780;51.034;7.120;2022-10-17T06:00:01;2.70;;;1.60;;
48014;SDS011;33780;51.034;7.120;2022-10-17T06:02:26;3.42;;;1.65;;
48014;SDS011;33780;51.034;7.120;2022-10-17T06:04:51;3.42;;;1.80;;
48014;SDS011;33780;51.034;7.120;2022-10-17T06:07:24;2.92;;;1.75;;
48014;SDS011;33780;51.034;7.120;2022-10-17T06:09:49;3.70;;;1.55;;
48014;SDS011;33780;51.034;7.120;2022-10-17T06:12:14;3.47;;;1.80;;
48014;SDS011;33780;51.034;7.120;2022-10-17T06:14:40;5.13;;;2.00;;
48014;SDS011;33780;51.034;7.120;2022-10-17T06:17:07;3.83;;;1.67;;
48014;SDS011;33780;51.034;7.120;2022-10-17T06:19:33;3.10;;;1.83;;
48014;SDS011;33780;51.034;7.120;2022-10-17T06:21:58;6.85;;;1.85;;
48014;SDS011;33780;51.034;7.120;2022-10-17T06:24:31;6.18;;;1.70;;
48014;SDS011;33780;51.034;7.120;2022-10-17T06:26:56;4.22;;;1.75;;
48014;SDS011;33780;51.034;7.120;2022-10-17T06:29:21;4.97;;;1.90;;
48014;SDS011;33780;51.034;7.120;2022-10-17T06:31:47;3.38;;;2.03;;
48014;SDS011;33780;51.034;7.120;2022-10-17T06:34:12;3.50;;;1.90;;
48014;SDS011;33780;51.034;7.120;2022-10-17T06:36:37;5.55;;;2.10;;
48014;SDS011;33780;51.034;7.120;2022-10-17T06:39:03;3.58;;;2.20;;
48014;SDS011;33780;51.034;7.120;2022-10-17T06:41:31;4.22;;;2.20;;
48014;SDS011;33780;51.034;7.120;2022-10-17T06:44:14;3.95;;;2.20;;
48014;SDS011;33780;51.034;7.120;2022-10-17T06:46:40;3.25;;;1.75;;
48014;SDS011;33780;51.034;7.120;2022-10-17T06:49:08;4.15;;;2.08;;
48014;SDS011;33780;51.034;7.120;2022-10-17T06:51:34;3.25;;;1.63;;
48014;SDS011;33780;51.034;7.120;2022-10-17T06:54:01;4.28;;;1.80;;
48014;SDS011;33780;51.034;7.120;2022-10-17T06:56:26;4.00;;;1.80;;
48014;SDS011;33780;51.034;7.120;2022-10-17T06:58:56;4.03;;;1.95;;
48014;SDS011;33780;51.034;7.120;2022-10-17T07:01:22;3.95;;;2.10;;
48014;SDS011;33780;51.034;7.120;2022-10-17T07:03:47;4.53;;;1.98;;
48014;SDS011;33780;51.034;7.120;2022-10-17T07:06:14;7.18;;;2.22;;
48014;SDS011;33780;51.034;7.120;2022-10-17T07:08:47;6.85;;;2.08;;
48014;SDS011;33780;51.034;7.120;2022-10-17T07:11:13;3.40;;;2.10;;
48014;SDS011;33780;51.034;7.120;2022-10-17T07:13:48;3.65;;;2.00;;
48014;SDS011;33780;51.034;7.120;2022-10-17T07:18:39;4.82;;;2.30;;
48014;SDS011;33780;51.034;7.120;2022-10-17T07:21:08;4.95;;;1.95;;
48014;SDS011;33780;51.034;7.120;2022-10-17T07:23:34;4.80;;;1.80;;
48014;SDS011;33780;51.034;7.120;2022-10-17T07:26:01;6.50;;;2.20;;
48014;SDS011;33780;51.034;7.120;2022-10-17T07:28:31;4.10;;;1.80;;
48014;SDS011;33780;51.034;7.120;2022-10-17T07:31:08;4.22;;;2.15;;
48014;SDS011;33780;51.034;7.120;2022-10-17T07:33:37;5.25;;;2.03;;
48014;SDS011;33780;51.034;7.120;2022-10-17T07:36:05;7.57;;;2.13;;
48014;SDS011;33780;51.034;7.120;2022-10-17T07:38:36;3.00;;;1.98;;
48014;SDS011;33780;51.034;7.120;2022-10-17T07:41:03;5.13;;;1.95;;
48014;SDS011;33780;51.034;7.120;2022-10-17T07:43:31;4.13;;;2.28;;
48014;SDS011;33780;51.034;7.120;2022-10-17T07:46:01;5.45;;;2.22;;
48014;SDS011;33780;51.034;7.120;2022-10-17T07:48:29;4.75;;;1.58;;
48014;SDS011;33780;51.034;7.120;2022-10-17T07:51:00;7.05;;;2.50;;
48014;SDS011;33780;51.034;7.120;2022-10-17T07:53:26;6.35;;;2.38;;
48014;SDS011;33780;51.034;7.120;2022-10-17T07:55:51;4.30;;;2.10;;
48014;SDS011;33780;51.034;7.120;2022-10-17T07:58:17;3.20;;;2.00;;
48014;SDS011;33780;51.034;7.120;2022-10-17T08:00:49;4.82;;;2.47;;
48014;SDS011;33780;51.034;7.120;2022-10-17T08:03:15;4.18;;;1.90;;
48014;SDS011;33780;51.034;7.120;2022-10-17T08:05:48;5.30;;;2.17;;
48014;SDS011;33780;51.034;7.120;2022-10-17T08:08:13;3.85;;;2.10;;
48014;SDS011;33780;51.034;7.120;2022-10-17T08:10:38;4.85;;;2.20;;
48014;SDS011;33780;51.034;7.120;2022-10-17T08:13:11;3.58;;;2.10;;
48014;SDS011;33780;51.034;7.120;2022-10-17T08:18:10;4.00;;;1.88;;
48014;SDS011;33780;51.034;7.120;2022-10-17T08:23:00;3.80;;;1.73;;
48014;SDS011;33780;51.034;7.120;2022-10-17T08:25:26;3.40;;;1.90;;
48014;SDS011;33780;51.034;7.120;2022-10-17T08:27:56;5.18;;;1.83;;
48014;SDS011;33780;51.034;7.120;2022-10-17T08:30:22;5.65;;;2.20;;
48014;SDS011;33780;51.034;7.120;2022-10-17T08:32:47;3.15;;;1.67;;
48014;SDS011;33780;51.034;7.120;2022-10-17T08:35:12;4.57;;;2.00;;
48014;SDS011;33780;51.034;7.120;2022-10-17T08:37:48;3.38;;;1.92;;
48014;SDS011;33780;51.034;7.120;2022-10-17T08:40:31;5.18;;;2.13;;
48014;SDS011;33780;51.034;7.120;2022-10-17T08:46:06;3.42;;;1.65;;
48014;SDS011;33780;51.034;7.120;2022-10-17T08:48:37;2.95;;;1.90;;
48014;SDS011;33780;51.034;7.120;2022-10-17T08:51:12;5.05;;;1.73;;
48014;SDS011;33780;51.034;7.120;2022-10-17T08:53:46;3.75;;;1.60;;
48014;SDS011;33780;51.034;7.120;2022-10-17T08:58:50;4.50;;;1.80;;
48014;SDS011;33780;51.034;7.120;2022-10-17T09:07:00;4.47;;;1.90;;
48014;SDS011;33780;51.034;7.120;2022-10-17T09:09:39;5.43;;;1.80;;
48014;SDS011;33780;51.034;7.120;2022-10-17T09:12:28;2.97;;;1.60;;
48014;SDS011;33780;51.034;7.120;2022-10-17T09:18:02;2.80;;;1.65;;
48014;SDS011;33780;51.034;7.120;2022-10-17T09:20:53;4.78;;;2.00;;
48014;SDS011;33780;51.034;7.120;2022-10-17T09:23:30;3.13;;;1.92;;
48014;SDS011;33780;51.034;7.120;2022-10-17T09:26:09;3.83;;;1.92;;
48014;SDS011;33780;51.034;7.120;2022-10-17T09:28:41;3.30;;;1.65;;
48014;SDS011;33780;51.034;7.120;2022-10-17T09:31:22;4.55;;;1.67;;
48014;SDS011;33780;51.034;7.120;2022-10-17T09:33:56;3.22;;;1.60;;
48014;SDS011;33780;51.034;7.120;2022-10-17T09:36:31;4.60;;;1.92;;
48014;SDS011;33780;51.034;7.120;2022-10-17T09:38:59;4.22;;;1.83;;
48014;SDS011;33780;51.034;7.120;2022-10-17T09:44:16;3.45;;;1.90;;
48014;SDS011;33780;51.034;7.120;2022-10-17T09:47:05;3.97;;;1.90;;
48014;SDS011;33780;51.034;7.120;2022-10-17T09:49:38;4.22;;;1.83;;
48014;SDS011;33780;51.034;7.120;2022-10-17T09:52:07;2.60;;;1.65;;
48014;SDS011;33780;51.034;7.120;2022-10-17T09:57:52;3.55;;;1.90;;
48014;SDS011;33780;51.034;7.120;2022-10-17T10:00:23;4.10;;;1.83;;
48014;SDS011;33780;51.034;7.120;2022-10-17T10:05:36;4.35;;;1.83;;
48014;SDS011;33780;51.034;7.120;2022-10-17T10:08:20;6.68;;;1.80;;
48014;SDS011;33780;51.034;7.120;2022-10-17T10:10:48;4.05;;;1.80;;
48014;SDS011;33780;51.034;7.120;2022-10-17T10:13:22;2.85;;;1.80;;
48014;SDS011;33780;51.034;7.120;2022-10-17T10:15:50;3.25;;;1.75;;
48014;SDS011;33780;51.034;7.120;2022-10-17T10:18:25;4.60;;;1.75;;
48014;SDS011;33780;51.034;7.120;2022-10-17T10:21:04;3.63;;;2.30;;
48014;SDS011;33780;51.034;7.120;2022-10-17T10:23:33;4.10;;;1.40;;
48014;SDS011;33780;51.034;7.120;2022-10-17T10:26:04;3.92;;;1.80;;
48014;SDS011;33780;51.034;7.120;2022-10-17T10:28:49;8.20;;;1.98;;
48014;SDS011;33780;51.034;7.120;2022-10-17T10:31:23;3.20;;;1.75;;
48014;SDS011;33780;51.034;7.120;2022-10-17T10:36:46;3.28;;;1.70;;
48014;SDS011;33780;51.034;7.120;2022-10-17T10:41:52;3.97;;;2.00;;
48014;SDS011;33780;51.034;7.120;2022-10-17T10:44:18;3.78;;;1.80;;
48014;SDS011;33780;51.034;7.120;2022-10-17T10:46:47;4.10;;;2.00;;
48014;SDS011;33780;51.034;7.120;2022-10-17T10:49:28;3.38;;;1.65;;
48014;SDS011;33780;51.034;7.120;2022-10-17T10:51:55;6.40;;;1.80;;
48014;SDS011;33780;51.034;7.120;2022-10-17T10:54:28;6.18;;;1.85;;
48014;SDS011;33780;51.034;7.120;2022-10-17T10:56:59;4.22;;;1.92;;
48014;SDS011;33780;51.034;7.120;2022-10-17T11:05:13;3.78;;;2.05;;
48014;SDS011;33780;51.034;7.120;2022-10-17T11:07:45;4.13;;;2.00;;
48014;SDS011;33780;51.034;7.120;2022-10-17T11:13:21;3.60;;;1.87;;
48014;SDS011;33780;51.034;7.120;2022-10-17T11:15:52;3.42;;;1.80;;
48014;SDS011;33780;51.034;7.120;2022-10-17T11:21:09;3.63;;;1.70;;
48014;SDS011;33780;51.034;7.120;2022-10-17T11:23:42;5.60;;;1.92;;
48014;SDS011;33780;51.034;7.120;2022-10-17T11:26:18;3.90;;;1.88;;
48014;SDS011;33780;51.034;7.120;2022-10-17T11:28:54;3.00;;;1.90;;
48014;SDS011;33780;51.034;7.120;2022-10-17T11:31:22;4.60;;;2.05;;
48014;SDS011;33780;51.034;7.120;2022-10-17T11:33:59;4.28;;;1.85;;
48014;SDS011;33780;51.034;7.120;2022-10-17T11:36:29;6.03;;;2.03;;
48014;SDS011;33780;51.034;7.120;2022-10-17T11:39:00;2.58;;;1.50;;
48014;SDS011;33780;51.034;7.120;2022-10-17T11:44:01;2.58;;;1.70;;
48014;SDS011;33780;51.034;7.120;2022-10-17T11:46:33;4.38;;;1.98;;
48014;SDS011;33780;51.034;7.120;2022-10-17T11:49:18;3.92;;;1.90;;
48014;SDS011;33780;51.034;7.120;2022-10-17T11:51:49;5.07;;;1.80;;
48014;SDS011;33780;51.034;7.120;2022-10-17T11:57:08;2.67;;;1.80;;
48014;SDS011;33780;51.034;7.120;2022-10-17T11:59:47;5.40;;;2.45;;
48014;SDS011;33780;51.034;7.120;2022-10-17T12:02:57;4.05;;;1.63;;
48014;SDS011;33780;51.034;7.120;2022-10-17T12:05:32;3.38;;;1.58;;
48014;SDS011;33780;51.034;7.120;2022-10-17T12:13:58;3.53;;;1.95;;
48014;SDS011;33780;51.034;7.120;2022-10-17T12:21:52;3.35;;;1.95;;
48014;SDS011;33780;51.034;7.120;2022-10-17T12:24:43;3.23;;;1.60;;
48014;SDS011;33780;51.034;7.120;2022-10-17T12:30:03;3.50;;;1.80;;
48014;SDS011;33780;51.034;7.120;2022-10-17T12:32:35;3.35;;;1.90;;
48014;SDS011;33780;51.034;7.120;2022-10-17T12:35:00;3.33;;;1.90;;
48014;SDS011;33780;51.034;7.120;2022-10-17T12:49:18;3.20;;;1.95;;
48014;SDS011;33780;51.034;7.120;2022-10-17T12:51:08;4.65;;;2.08;;
48014;SDS011;33780;51.034;7.120;2022-10-17T12:56:20;2.88;;;1.88;;
48014;SDS011;33780;51.034;7.120;2022-10-17T12:58:54;4.22;;;1.90;;
48014;SDS011;33780;51.034;7.120;2022-10-17T13:01:32;3.97;;;2.38;;
48014;SDS011;33780;51.034;7.120;2022-10-17T13:04:00;3.30;;;1.80;;
48014;SDS011;33780;51.034;7.120;2022-10-17T13:06:30;5.10;;;2.22;;
48014;SDS011;33780;51.034;7.120;2022-10-17T13:09:03;4.30;;;1.90;;
48014;SDS011;33780;51.034;7.120;2022-10-17T13:11:33;6.28;;;2.42;;
48014;SDS011;33780;51.034;7.120;2022-10-17T13:14:02;3.90;;;1.95;;
48014;SDS011;33780;51.034;7.120;2022-10-17T13:16:35;4.80;;;1.92;;
48014;SDS011;33780;51.034;7.120;2022-10-17T13:19:03;3.33;;;1.92;;
48014;SDS011;33780;51.034;7.120;2022-10-17T13:21:36;4.30;;;2.47;;
48014;SDS011;33780;51.034;7.120;2022-10-17T13:24:18;3.08;;;1.90;;
48014;SDS011;33780;51.034;7.120;2022-10-17T13:26:52;4.03;;;2.03;;
48014;SDS011;33780;51.034;7.120;2022-10-17T13:29:17;4.93;;;2.25;;
48014;SDS011;33780;51.034;7.120;2022-10-17T13:31:45;4.57;;;2.00;;
48014;SDS011;33780;51.034;7.120;2022-10-17T13:34:18;3.70;;;2.17;;
48014;SDS011;33780;51.034;7.120;2022-10-17T13:36:45;4.05;;;2.30;;
48014;SDS011;33780;51.034;7.120;2022-10-17T13:39:13;3.03;;;1.80;;
48014;SDS011;33780;51.034;7.120;2022-10-17T13:41:41;4.18;;;2.53;;
48014;SDS011;33780;51.034;7.120;2022-10-17T13:44:10;5.80;;;2.10;;
48014;SDS011;33780;51.034;7.120;2022-10-17T13:46:38;3.55;;;2.20;;
48014;SDS011;33780;51.034;7.120;2022-10-17T13:49:09;9.20;;;2.42;;
48014;SDS011;33780;51.034;7.120;2022-10-17T13:51:40;7.05;;;2.05;;
48014;SDS011;33780;51.034;7.120;2022-10-17T13:54:25;5.28;;;2.17;;
48014;SDS011;33780;51.034;7.120;2022-10-17T13:56:57;5.05;;;2.20;;
48014;SDS011;33780;51.034;7.120;2022-10-17T13:59:29;4.15;;;2.08;;
48014;SDS011;33780;51.034;7.120;2022-10-17T14:02:02;3.50;;;2.20;;
48014;SDS011;33780;51.034;7.120;2022-10-17T14:04:27;5.38;;;2.47;;
48014;SDS011;33780;51.034;7.120;2022-10-17T14:06:52;3.97;;;2.25;;
48014;SDS011;33780;51.034;7.120;2022-10-17T14:09:25;3.22;;;1.95;;
48014;SDS011;33780;51.034;7.120;2022-10-17T14:12:05;7.80;;;2.38;;
48014;SDS011;33780;51.034;7.120;2022-10-17T14:14:37;6.00;;;2.40;;
48014;SDS011;33780;51.034;7.120;2022-10-17T14:17:14;6.00;;;2.53;;
48014;SDS011;33780;51.034;7.120;2022-10-17T14:19:55;4.15;;;2.40;;
48014;SDS011;33780;51.034;7.120;2022-10-17T14:22:33;3.08;;;1.95;;
48014;SDS011;33780;51.034;7.120;2022-10-17T14:25:00;7.72;;;2.05;;
48014;SDS011;33780;51.034;7.120;2022-10-17T14:27:32;5.03;;;2.00;;
48014;SDS011;33780;51.034;7.120;2022-10-17T14:30:03;5.30;;;1.85;;
48014;SDS011;33780;51.034;7.120;2022-10-17T14:32:31;7.95;;;2.50;;
48014;SDS011;33780;51.034;7.120;2022-10-17T14:34:59;7.72;;;2.53;;
48014;SDS011;33780;51.034;7.120;2022-10-17T14:40:21;6.25;;;2.40;;
48014;SDS011;33780;51.034;7.120;2022-10-17T14:42:48;11.18;;;2.28;;
48014;SDS011;33780;51.034;7.120;2022-10-17T14:45:34;6.07;;;2.50;;
48014;SDS011;33780;51.034;7.120;2022-10-17T14:48:03;5.50;;;2.20;;
48014;SDS011;33780;51.034;7.120;2022-10-17T14:50:33;3.77;;;2.20;;
48014;SDS011;33780;51.034;7.120;2022-10-17T14:55:34;10.60;;;2.53;;
48014;SDS011;33780;51.034;7.120;2022-10-17T14:58:01;4.50;;;2.03;;
48014;SDS011;33780;51.034;7.120;2022-10-17T15:00:40;5.88;;;2.28;;
48014;SDS011;33780;51.034;7.120;2022-10-17T15:03:05;5.75;;;2.30;;
48014;SDS011;33780;51.034;7.120;2022-10-17T15:05:30;10.23;;;2.85;;
48014;SDS011;33780;51.034;7.120;2022-10-17T15:07:56;3.55;;;2.33;;
48014;SDS011;33780;51.034;7.120;2022-10-17T15:10:30;7.22;;;2.85;;
48014;SDS011;33780;51.034;7.120;2022-10-17T15:12:59;4.05;;;2.00;;
48014;SDS011;33780;51.034;7.120;2022-10-17T15:15:29;3.90;;;2.42;;
48014;SDS011;33780;51.034;7.120;2022-10-17T15:17:55;5.22;;;2.45;;
48014;SDS011;33780;51.034;7.120;2022-10-17T15:20:21;5.68;;;2.45;;
48014;SDS011;33780;51.034;7.120;2022-10-17T15:22:50;9.38;;;2.28;;
48014;SDS011;33780;51.034;7.120;2022-10-17T15:25:16;3.65;;;1.92;;
48014;SDS011;33780;51.034;7.120;2022-10-17T15:27:42;5.85;;;2.42;;
48014;SDS011;33780;51.034;7.120;2022-10-17T15:32:47;6.28;;;2.00;;
48014;SDS011;33780;51.034;7.120;2022-10-17T15:35:13;6.38;;;2.30;;
48014;SDS011;33780;51.034;7.120;2022-10-17T15:37:38;5.40;;;1.90;;
48014;SDS011;33780;51.034;7.120;2022-10-17T15:40:04;6.03;;;2.40;;
48014;SDS011;33780;51.034;7.120;2022-10-17T15:42:30;4.95;;;2.40;;
48014;SDS011;33780;51.034;7.120;2022-10-17T15:44:56;4.95;;;2.38;;
48014;SDS011;33780;51.034;7.120;2022-10-17T15:47:25;12.00;;;2.65;;
48014;SDS011;33780;51.034;7.120;2022-10-17T15:49:53;5.75;;;2.42;;
48014;SDS011;33780;51.034;7.120;2022-10-17T15:52:19;5.28;;;2.30;;
48014;SDS011;33780;51.034;7.120;2022-10-17T15:54:45;8.60;;;2.42;;
48014;SDS011;33780;51.034;7.120;2022-10-17T15:57:21;3.35;;;2.10;;
48014;SDS011;33780;51.034;7.120;2022-10-17T15:59:50;5.93;;;2.10;;
48014;SDS011;33780;51.034;7.120;2022-10-17T16:02:17;4.30;;;2.28;;
48014;SDS011;33780;51.034;7.120;2022-10-17T16:04:44;7.30;;;2.10;;
48014;SDS011;33780;51.034;7.120;2022-10-17T16:07:10;4.95;;;2.17;;
48014;SDS011;33780;51.034;7.120;2022-10-17T16:09:35;8.68;;;2.25;;
48014;SDS011;33780;51.034;7.120;2022-10-17T16:12:02;5.40;;;2.08;;
48014;SDS011;33780;51.034;7.120;2022-10-17T16:14:29;5.25;;;2.67;;
48014;SDS011;33780;51.034;7.120;2022-10-17T16:16:56;3.50;;;2.00;;
48014;SDS011;33780;51.034;7.120;2022-10-17T16:19:22;4.85;;;2.30;;
48014;SDS011;33780;51.034;7.120;2022-10-17T16:21:50;3.90;;;1.80;;
48014;SDS011;33780;51.034;7.120;2022-10-17T16:24:15;4.32;;;2.17;;
48014;SDS011;33780;51.034;7.120;2022-10-17T16:26:41;5.97;;;1.90;;
48014;SDS011;33780;51.034;7.120;2022-10-17T16:29:07;6.13;;;1.80;;
48014;SDS011;33780;51.034;7.120;2022-10-17T16:31:34;4.50;;;1.92;;
48014;SDS011;33780;51.034;7.120;2022-10-17T16:34:02;4.80;;;2.30;;
48014;SDS011;33780;51.034;7.120;2022-10-17T16:36:28;4.18;;;1.73;;
48014;SDS011;33780;51.034;7.120;2022-10-17T16:38:56;5.53;;;1.52;;
48014;SDS011;33780;51.034;7.120;2022-10-17T16:41:25;3.80;;;1.88;;
48014;SDS011;33780;51.034;7.120;2022-10-17T16:43:52;4.55;;;2.88;;
48014;SDS011;33780;51.034;7.120;2022-10-17T16:46:19;4.00;;;2.10;;
48014;SDS011;33780;51.034;7.120;2022-10-17T16:48:53;4.00;;;1.88;;
48014;SDS011;33780;51.034;7.120;2022-10-17T16:51:19;4.68;;;2.13;;
48014;SDS011;33780;51.034;7.120;2022-10-17T16:53:48;3.92;;;1.80;;
48014;SDS011;33780;51.034;7.120;2022-10-17T16:56:17;4.90;;;2.17;;
48014;SDS011;33780;51.034;7.120;2022-10-17T16:58:52;3.42;;;1.88;;
48014;SDS011;33780;51.034;7.120;2022-10-17T17:01:19;9.32;;;2.15;;
48014;SDS011;33780;51.034;7.120;2022-10-17T17:03:50;5.10;;;1.98;;
48014;SDS011;33780;51.034;7.120;2022-10-17T17:06:17;5.05;;;2.03;;
48014;SDS011;33780;51.034;7.120;2022-10-17T17:08:44;4.55;;;1.95;;
48014;SDS011;33780;51.034;7.120;2022-10-17T17:11:10;3.55;;;1.63;;
48014;SDS011;33780;51.034;7.120;2022-10-17T17:13:45;3.97;;;2.00;;
48014;SDS011;33780;51.034;7.120;2022-10-17T17:16:11;4.28;;;1.90;;
48014;SDS011;33780;51.034;7.120;2022-10-17T17:19:05;4.57;;;1.88;;
48014;SDS011;33780;51.034;7.120;2022-10-17T17:21:32;3.10;;;1.33;;